createdAt,value
2023-11-19T00:01:39.370Z,90.19
2023-11-19T00:04:23.816Z,90.15
2023-11-19T00:07:06.214Z,90.34
2023-11-19T00:09:45.972Z,90.07
2023-11-19T00:12:26.048Z,90.25
2023-11-19T00:15:05.855Z,89.81
2023-11-19T00:17:47.192Z,89.57
2023-11-19T00:20:31.899Z,89.61
2023-11-19T00:23:11.235Z,89.44
2023-11-19T00:25:50.597Z,89.59
2023-11-19T00:28:31.023Z,89.24
2023-11-19T00:31:10.511Z,88.74
2023-11-19T00:33:50.698Z,88.83
2023-11-19T00:36:35.287Z,89.00
2023-11-19T00:39:17.274Z,88.97
2023-11-19T00:41:56.624Z,89.22
2023-11-19T00:44:36.039Z,89.06
2023-11-19T00:47:15.389Z,88.99
2023-11-19T00:49:55.962Z,89.44
2023-11-19T00:52:40.389Z,89.68
2023-11-19T00:55:19.878Z,89.63
2023-11-19T00:57:59.312Z,89.01
2023-11-19T01:00:38.928Z,89.32
2023-11-19T01:03:19.143Z,89.39
2023-11-19T01:05:59.723Z,89.54
2023-11-19T01:08:44.157Z,89.59
2023-11-19T01:11:28.488Z,90.07
2023-11-19T01:14:07.850Z,90.16
2023-11-19T01:16:47.272Z,90.33
2023-11-19T01:19:26.686Z,90.76
2023-11-19T01:22:06.115Z,90.27
2023-11-19T01:24:50.520Z,89.93
2023-11-19T01:27:29.824Z,89.72
2023-11-19T01:30:11.849Z,89.47
2023-11-19T01:32:51.424Z,89.46
2023-11-19T01:35:30.795Z,89.40
2023-11-19T01:38:10.879Z,88.67
2023-11-19T01:40:55.248Z,87.91
2023-11-19T01:43:43.655Z,87.79
2023-11-19T01:46:23.081Z,87.64
2023-11-19T01:49:02.631Z,88.01
2023-11-19T01:51:42.397Z,88.14
2023-11-19T01:54:22.774Z,87.85
2023-11-19T01:57:07.390Z,87.80
2023-11-19T01:59:47.009Z,87.96
2023-11-19T02:02:28.606Z,88.28
2023-11-19T02:05:08.330Z,88.87
2023-11-19T02:07:48.607Z,88.56
2023-11-19T02:10:27.951Z,88.79
2023-11-19T02:13:15.838Z,88.64
2023-11-19T02:15:55.314Z,88.98
2023-11-19T02:18:36.224Z,88.96
2023-11-19T02:21:17.305Z,89.35
2023-11-19T02:24:08.868Z,90.06
2023-11-19T02:26:58.937Z,90.37
2023-11-19T02:29:43.305Z,90.33
2023-11-19T02:32:24.093Z,90.51
2023-11-19T02:37:47.359Z,90.16
2023-11-19T02:40:26.764Z,90.10
2023-11-19T02:43:07.287Z,90.09
2023-11-19T02:45:53.060Z,90.41
2023-11-19T02:48:32.951Z,90.16
2023-11-19T02:51:14.218Z,90.04
2023-11-19T02:53:53.540Z,89.75
2023-11-19T02:56:37.030Z,89.87
2023-11-19T02:59:29.220Z,90.20
2023-11-19T03:02:14.221Z,89.81
2023-11-19T03:04:53.667Z,89.66
2023-11-19T03:07:32.990Z,89.89
2023-11-19T03:10:15.902Z,89.98
2023-11-19T03:12:57.571Z,90.01
2023-11-19T03:15:36.930Z,90.49
2023-11-19T03:18:21.504Z,90.53
2023-11-19T03:21:00.867Z,89.83
2023-11-19T03:23:42.009Z,89.69
2023-11-19T03:26:21.372Z,89.34
2023-11-19T03:29:00.778Z,89.53
2023-11-19T03:31:40.728Z,89.59
2023-11-19T03:34:25.126Z,89.77
2023-11-19T03:37:05.399Z,89.83
2023-11-19T03:39:44.752Z,89.35
2023-11-19T03:42:24.081Z,89.71
2023-11-19T03:45:06.225Z,89.32
2023-11-19T03:47:46.103Z,89.13
2023-11-19T03:50:30.855Z,89.19
2023-11-19T03:53:10.444Z,89.24
2023-11-19T03:55:49.767Z,89.01
2023-11-19T03:58:29.093Z,89.35
2023-11-19T04:01:08.490Z,89.18
2023-11-19T04:03:51.435Z,88.99
2023-11-19T04:06:36.690Z,89.13
2023-11-19T04:09:15.976Z,89.01
2023-11-19T04:11:55.351Z,89.16
2023-11-19T04:14:35.746Z,88.89
2023-11-19T04:17:15.102Z,89.31
2023-11-19T04:19:54.466Z,89.57
2023-11-19T04:22:39.000Z,89.45
2023-11-19T04:25:19.001Z,89.16
2023-11-19T04:27:58.439Z,89.33
2023-11-19T04:30:39.377Z,89.85
2023-11-19T04:33:18.725Z,89.83
2023-11-19T04:35:58.207Z,90.07
2023-11-19T04:38:42.585Z,90.06
2023-11-19T04:41:21.934Z,89.98
2023-11-19T04:44:01.300Z,90.02
2023-11-19T04:46:40.675Z,90.34
2023-11-19T04:49:20.851Z,90.72
2023-11-19T04:52:00.427Z,90.74
2023-11-19T04:54:50.596Z,90.75
2023-11-19T04:57:29.972Z,90.52
2023-11-19T05:02:54.102Z,91.11
2023-11-19T05:05:33.628Z,91.37
2023-11-19T05:08:13.902Z,91.55
2023-11-19T05:10:59.966Z,91.23
2023-11-19T05:13:39.351Z,91.26
2023-11-19T05:16:19.787Z,91.19
2023-11-19T05:18:59.181Z,91.14
2023-11-19T05:21:38.586Z,91.32
2023-11-19T05:24:18.784Z,91.12
2023-11-19T05:27:03.182Z,91.04
2023-11-19T05:29:43.657Z,91.15
2023-11-19T05:32:23.347Z,91.38
2023-11-19T05:35:02.773Z,91.52
2023-11-19T05:37:42.483Z,91.62
2023-11-19T05:40:22.997Z,91.64
2023-11-19T05:43:07.422Z,91.65
2023-11-19T05:45:46.819Z,91.94
2023-11-19T05:48:26.161Z,91.68
2023-11-19T05:51:05.530Z,91.70
2023-11-19T05:53:44.852Z,91.79
2023-11-19T05:56:24.512Z,91.75
2023-11-19T05:59:11.509Z,91.75
2023-11-19T06:01:50.879Z,92.11
2023-11-19T06:04:30.333Z,92.63
2023-11-19T06:07:09.707Z,92.60
2023-11-19T06:09:49.116Z,92.53
2023-11-19T06:12:29.969Z,92.37
2023-11-19T06:15:16.115Z,92.27
2023-11-19T06:17:55.498Z,92.59
2023-11-19T06:23:18.783Z,92.67
2023-11-19T06:25:58.173Z,92.76
2023-11-19T06:28:38.539Z,92.88
2023-11-19T06:31:23.248Z,92.97
2023-11-19T06:34:02.667Z,92.06
2023-11-19T06:36:42.111Z,92.12
2023-11-19T06:39:22.406Z,92.55
2023-11-19T06:42:02.498Z,93.28
2023-11-19T06:44:41.813Z,93.74
2023-11-19T06:47:26.382Z,93.68
2023-11-19T06:50:07.746Z,93.12
2023-11-19T06:52:47.332Z,93.11
2023-11-19T06:55:26.686Z,92.98
2023-11-19T06:58:08.354Z,93.20
2023-11-19T07:00:49.493Z,94.33
2023-11-19T07:03:33.996Z,95.84
2023-11-19T07:06:15.261Z,95.88
2023-11-19T07:08:54.538Z,96.25
2023-11-19T07:11:33.901Z,96.81
2023-11-19T07:14:13.911Z,96.94
2023-11-19T07:16:53.571Z,96.81
2023-11-19T07:19:38.673Z,96.71
2023-11-19T07:22:18.073Z,96.51
2023-11-19T07:24:57.365Z,96.43
2023-11-19T07:27:36.682Z,95.97
2023-11-19T07:30:16.361Z,96.03
2023-11-19T07:32:55.964Z,95.52
2023-11-19T07:35:40.765Z,95.46
2023-11-19T07:38:20.557Z,95.07
2023-11-19T07:40:59.968Z,94.80
2023-11-19T07:43:39.390Z,94.74
2023-11-19T07:46:21.749Z,95.05
2023-11-19T07:49:01.339Z,95.29
2023-11-19T07:51:45.726Z,95.29
2023-11-19T07:54:25.048Z,95.02
2023-11-19T07:57:04.471Z,94.55
2023-11-19T07:59:43.867Z,94.53
2023-11-19T08:02:24.053Z,94.28
2023-11-19T08:05:03.523Z,94.12
2023-11-19T08:07:47.977Z,93.77
2023-11-19T08:10:27.322Z,93.36
2023-11-19T08:13:06.644Z,93.16
2023-11-19T08:15:45.955Z,92.82
2023-11-19T08:18:25.780Z,92.11
2023-11-19T08:21:07.136Z,91.88
2023-11-19T08:23:51.537Z,91.32
2023-11-19T08:26:31.580Z,91.05
2023-11-19T08:29:11.605Z,90.38
2023-11-19T08:31:50.939Z,89.79
2023-11-19T08:34:30.318Z,89.31
2023-11-19T08:37:09.746Z,89.23
2023-11-19T08:39:54.132Z,89.09
2023-11-19T08:42:33.534Z,89.30
2023-11-19T08:45:13.988Z,88.28
2023-11-19T08:47:53.325Z,88.39
2023-11-19T08:50:32.686Z,88.38
2023-11-19T08:53:12.305Z,87.48
2023-11-19T08:55:56.774Z,87.61
2023-11-19T08:58:36.126Z,86.94
2023-11-19T09:01:15.535Z,86.99
2023-11-19T09:03:55.047Z,86.10
2023-11-19T09:06:34.846Z,85.40
2023-11-19T09:09:14.284Z,85.58
2023-11-19T09:11:58.642Z,84.89
2023-11-19T09:14:38.024Z,85.01
2023-11-19T09:17:17.850Z,84.79
2023-11-19T09:19:57.398Z,84.78
2023-11-19T09:22:36.687Z,84.11
2023-11-19T09:25:19.085Z,83.64
2023-11-19T09:28:03.508Z,83.29
2023-11-19T09:30:42.875Z,83.22
2023-11-19T09:33:22.373Z,82.42
2023-11-19T09:36:01.764Z,81.78
2023-11-19T09:38:41.229Z,79.90
2023-11-19T09:41:21.732Z,80.35
2023-11-19T09:44:06.334Z,79.91
2023-11-19T09:46:46.836Z,80.29
2023-11-19T09:52:14.523Z,83.30
2023-11-19T09:54:54.103Z,85.27
2023-11-19T09:57:33.494Z,87.42
2023-11-19T10:00:19.748Z,88.58
2023-11-19T10:02:59.768Z,91.22
2023-11-19T10:05:40.527Z,91.64
2023-11-19T10:08:20.052Z,92.74
2023-11-19T10:10:59.918Z,92.83
2023-11-19T10:13:40.169Z,92.88
2023-11-19T10:16:26.773Z,92.54
2023-11-19T10:19:06.141Z,91.38
2023-11-19T10:21:45.771Z,90.23
2023-11-19T10:27:08.409Z,89.02
2023-11-19T10:29:47.828Z,88.36
2023-11-19T10:32:32.327Z,88.59
2023-11-19T10:35:15.984Z,87.38
2023-11-19T10:37:55.298Z,87.62
2023-11-19T10:40:47.400Z,86.31
2023-11-19T10:43:27.223Z,84.93
2023-11-19T10:46:23.351Z,84.16
2023-11-19T10:49:08.786Z,83.67
2023-11-19T10:51:54.342Z,82.71
2023-11-19T10:54:34.556Z,82.54
2023-11-19T10:57:20.795Z,84.20
2023-11-19T11:00:07.388Z,85.34
2023-11-19T11:02:52.156Z,86.34
2023-11-19T11:05:41.171Z,85.80
2023-11-19T11:08:20.548Z,85.01
2023-11-19T11:11:03.705Z,84.65
2023-11-19T11:13:46.894Z,66.09
2023-11-19T11:16:30.750Z,64.24
2023-11-19T11:19:11.537Z,62.56
2023-11-19T11:22:03.630Z,63.37
2023-11-19T11:25:18.690Z,67.41
2023-11-19T11:28:15.181Z,74.95
2023-11-19T11:31:09.885Z,67.25
2023-11-19T11:34:13.770Z,66.27
2023-11-19T11:37:13.919Z,59.83
2023-11-19T11:39:54.586Z,63.95
2023-11-19T11:42:41.389Z,68.09
2023-11-19T11:45:36.935Z,69.92
2023-11-19T11:48:29.114Z,61.74
2023-11-19T11:51:08.454Z,63.64
2023-11-19T11:53:56.828Z,62.70
2023-11-19T11:56:41.676Z,72.76
2023-11-19T11:59:27.373Z,65.45
2023-11-19T12:02:07.040Z,63.65
2023-11-19T12:04:49.050Z,59.09
2023-11-19T12:07:30.628Z,60.46
2023-11-19T12:10:20.091Z,72.29
2023-11-19T12:13:02.252Z,69.23
2023-11-19T12:15:41.977Z,73.08
2023-11-19T12:18:28.139Z,71.98
2023-11-19T12:21:09.751Z,71.30
2023-11-19T12:23:55.403Z,72.84
2023-11-19T12:26:47.533Z,72.06
2023-11-19T12:29:26.882Z,72.61
2023-11-19T12:34:49.858Z,73.03
2023-11-19T12:37:29.197Z,66.87
2023-11-19T12:40:08.668Z,62.41
2023-11-19T12:42:53.109Z,63.46
2023-11-19T12:45:32.504Z,64.57
2023-11-19T12:48:16.490Z,65.34
2023-11-19T12:51:03.870Z,63.71
2023-11-19T12:53:58.047Z,66.96
2023-11-19T12:56:38.786Z,68.07
2023-11-19T12:59:26.155Z,69.81
2023-11-19T13:02:08.111Z,70.99
2023-11-19T13:04:48.767Z,71.91
2023-11-19T13:07:31.122Z,71.04
2023-11-19T13:10:11.243Z,67.14
2023-11-19T13:12:51.412Z,67.79
2023-11-19T13:15:38.667Z,67.19
2023-11-19T13:18:18.242Z,67.38
2023-11-19T13:20:59.562Z,67.69
2023-11-19T13:23:38.866Z,67.84
2023-11-19T13:26:18.298Z,68.80
2023-11-19T13:28:57.867Z,67.87
2023-11-19T13:31:42.381Z,66.98
2023-11-19T13:34:21.776Z,63.99
2023-11-19T13:37:01.137Z,63.68
2023-11-19T13:39:40.549Z,64.39
2023-11-19T13:42:19.954Z,64.50
2023-11-19T13:44:59.270Z,64.40
2023-11-19T13:47:43.922Z,64.35
2023-11-19T13:50:25.212Z,62.74
2023-11-19T13:53:04.519Z,62.60
2023-11-19T13:55:43.855Z,63.19
2023-11-19T13:58:23.574Z,54.86
2023-11-19T14:01:03.062Z,48.55
2023-11-19T14:03:48.155Z,50.33
2023-11-19T14:06:27.593Z,58.06
2023-11-19T14:09:08.705Z,64.46
2023-11-19T14:11:48.174Z,65.27
2023-11-19T14:14:27.496Z,65.33
2023-11-19T14:19:55.200Z,65.37
2023-11-19T14:22:34.640Z,65.19
2023-11-19T14:25:14.982Z,65.15
2023-11-19T14:27:54.421Z,65.23
2023-11-19T14:30:33.887Z,65.38
2023-11-19T14:33:13.274Z,65.26
2023-11-19T14:35:57.746Z,64.96
2023-11-19T14:38:37.130Z,64.10
2023-11-19T14:41:11.441Z,63.37
2023-11-19T14:43:50.823Z,62.18
2023-11-19T14:46:30.295Z,62.69
2023-11-19T14:49:10.129Z,59.77
2023-11-19T14:51:54.788Z,58.36
2023-11-19T14:54:34.190Z,58.90
2023-11-19T14:57:14.319Z,60.34
2023-11-19T14:59:53.693Z,60.76
2023-11-19T15:02:33.059Z,62.25
2023-11-19T15:05:13.241Z,62.94
2023-11-19T15:07:58.059Z,63.66
2023-11-19T15:10:37.342Z,63.82
2023-11-19T15:13:16.772Z,63.47
2023-11-19T15:15:57.733Z,64.39
2023-11-19T15:18:37.151Z,65.05
2023-11-19T15:21:17.040Z,64.55
2023-11-19T15:24:01.513Z,64.57
2023-11-19T15:26:40.837Z,64.77
2023-11-19T15:29:22.135Z,64.47
2023-11-19T15:32:03.288Z,65.04
2023-11-19T15:34:43.873Z,65.28
2023-11-19T15:37:23.267Z,64.87
2023-11-19T15:40:10.273Z,64.41
2023-11-19T15:42:50.438Z,64.34
2023-11-19T15:45:29.831Z,64.42
2023-11-19T15:48:09.242Z,64.10
2023-11-19T15:50:49.143Z,64.02
2023-11-19T15:53:28.499Z,63.12
2023-11-19T15:56:13.529Z,63.29
2023-11-19T15:58:52.917Z,62.76
2023-11-19T16:01:33.037Z,62.96
2023-11-19T16:04:13.216Z,62.51
2023-11-19T16:06:52.602Z,63.26
2023-11-19T16:09:32.317Z,62.42
2023-11-19T16:12:16.994Z,62.76
2023-11-19T16:14:56.322Z,62.59
2023-11-19T16:17:37.493Z,62.58
2023-11-19T16:20:18.272Z,62.59
2023-11-19T16:22:57.591Z,63.08
2023-11-19T16:25:37.789Z,62.89
2023-11-19T16:28:23.257Z,62.99
2023-11-19T16:31:03.481Z,63.25
2023-11-19T16:33:42.875Z,63.27
2023-11-19T16:36:22.406Z,62.95
2023-11-19T16:41:45.044Z,63.18
2023-11-19T16:44:29.567Z,63.60
2023-11-19T16:47:09.399Z,64.20
2023-11-19T16:49:48.748Z,64.07
2023-11-19T16:52:29.402Z,64.39
2023-11-19T16:55:13.710Z,64.85
2023-11-19T16:57:53.012Z,64.43
2023-11-19T17:00:39.295Z,65.39
2023-11-19T17:03:18.745Z,65.63
2023-11-19T17:05:58.883Z,66.15
2023-11-19T17:08:40.312Z,66.37
2023-11-19T17:11:19.680Z,66.32
2023-11-19T17:13:59.458Z,65.66
2023-11-19T17:16:44.902Z,66.10
2023-11-19T17:19:24.324Z,65.70
2023-11-19T17:22:03.667Z,65.79
2023-11-19T17:24:43.359Z,65.86
2023-11-19T17:27:25.466Z,66.04
2023-11-19T17:30:06.980Z,66.20
2023-11-19T17:32:51.481Z,66.28
2023-11-19T17:35:31.122Z,65.47
2023-11-19T17:40:56.695Z,65.52
2023-11-19T17:43:36.070Z,64.97
2023-11-19T17:46:16.234Z,64.57
2023-11-19T17:49:01.196Z,64.19
2023-11-19T17:51:40.564Z,63.93
2023-11-19T17:54:21.249Z,63.75
2023-11-19T17:57:00.534Z,63.66
2023-11-19T17:59:39.946Z,63.72
2023-11-19T18:02:19.720Z,63.45
2023-11-19T18:05:04.292Z,62.66
2023-11-19T18:07:43.921Z,63.24
2023-11-19T18:10:23.843Z,63.70
2023-11-19T18:13:03.199Z,63.29
2023-11-19T18:15:42.573Z,63.07
2023-11-19T18:18:22.048Z,63.19
2023-11-19T18:21:06.529Z,63.25
2023-11-19T18:23:45.957Z,63.18
2023-11-19T18:26:44.470Z,63.43
2023-11-19T18:29:24.402Z,64.02
2023-11-19T18:32:04.620Z,64.25
2023-11-19T18:34:44.273Z,64.75
2023-11-19T18:37:28.646Z,65.41
2023-11-19T18:40:07.998Z,65.61
2023-11-19T18:42:47.311Z,65.58
2023-11-19T18:45:26.714Z,65.21
2023-11-19T18:48:08.283Z,65.35
2023-11-19T18:53:36.528Z,65.41
2023-11-19T18:56:16.516Z,64.97
2023-11-19T18:58:56.748Z,65.31
2023-11-19T19:01:36.046Z,64.87
2023-11-19T19:04:16.934Z,65.03
2023-11-19T19:06:56.369Z,65.41
2023-11-19T19:09:40.946Z,63.62
2023-11-19T19:12:20.256Z,63.81
2023-11-19T19:17:46.492Z,64.25
2023-11-19T19:20:25.944Z,64.20
2023-11-19T19:23:05.510Z,64.27
2023-11-19T19:25:49.939Z,64.11
2023-11-19T19:28:29.235Z,64.16
2023-11-19T19:31:08.688Z,64.29
2023-11-19T19:33:51.396Z,64.29
2023-11-19T19:36:30.702Z,64.85
2023-11-19T19:39:16.197Z,64.59
2023-11-19T19:42:00.928Z,65.09
2023-11-19T19:44:40.865Z,65.19
2023-11-19T19:47:20.373Z,65.06
2023-11-19T19:50:00.363Z,65.27
2023-11-19T19:52:41.508Z,65.63
2023-11-19T19:55:23.279Z,65.65
2023-11-19T19:58:09.844Z,65.72
2023-11-19T20:00:49.177Z,65.65
2023-11-19T20:03:29.527Z,65.37
2023-11-19T20:06:13.366Z,65.48
2023-11-19T20:08:52.684Z,64.50
2023-11-19T20:11:35.747Z,65.03
2023-11-19T20:14:25.133Z,64.90
2023-11-19T20:19:48.779Z,65.17
2023-11-19T20:22:28.108Z,65.10
2023-11-19T20:25:08.167Z,64.96
2023-11-19T20:27:47.591Z,65.16
2023-11-19T20:30:33.332Z,65.06
2023-11-19T20:33:12.971Z,64.19
2023-11-19T20:35:52.320Z,64.51
2023-11-19T20:38:31.748Z,63.63
2023-11-19T20:41:12.720Z,63.73
2023-11-19T20:43:52.174Z,63.89
2023-11-19T20:46:36.583Z,63.79
2023-11-19T20:49:15.965Z,63.72
2023-11-19T20:51:55.326Z,63.75
2023-11-19T20:57:18.107Z,63.51
2023-11-19T20:59:57.422Z,63.49
2023-11-19T21:02:42.097Z,63.30
2023-11-19T21:05:21.772Z,63.43
2023-11-19T21:08:02.064Z,63.88
2023-11-19T21:10:42.142Z,63.46
2023-11-19T21:13:21.496Z,62.62
2023-11-19T21:16:00.840Z,62.89
2023-11-19T21:18:45.339Z,63.77
2023-11-19T21:21:24.895Z,63.41
2023-11-19T21:24:04.237Z,63.13
2023-11-19T21:26:44.415Z,62.28
2023-11-19T21:29:23.838Z,62.97
2023-11-19T21:32:03.195Z,62.90
2023-11-19T21:34:48.098Z,63.17
2023-11-19T21:37:27.435Z,63.73
2023-11-19T21:40:08.310Z,63.71
2023-11-19T21:42:47.770Z,63.87
2023-11-19T21:45:27.311Z,64.65
2023-11-19T21:48:06.685Z,65.55
2023-11-19T21:50:51.114Z,65.50
2023-11-19T21:53:31.893Z,63.90
2023-11-19T21:56:13.463Z,63.23
2023-11-19T21:58:53.044Z,62.88
2023-11-19T22:01:32.459Z,62.96
2023-11-19T22:04:12.338Z,62.69
2023-11-19T22:06:56.924Z,58.28
2023-11-19T22:09:36.417Z,58.50
2023-11-19T22:12:16.465Z,59.64
2023-11-19T22:14:55.783Z,60.48
2023-11-19T22:17:35.620Z,61.38
2023-11-19T22:23:05.326Z,61.69
2023-11-19T22:25:44.998Z,62.13
2023-11-19T22:28:24.269Z,62.65
2023-11-19T22:31:04.277Z,62.81
2023-11-19T22:33:44.192Z,62.93
2023-11-19T22:36:25.018Z,63.28
2023-11-19T22:39:09.840Z,63.41
2023-11-19T22:41:49.226Z,63.43
2023-11-19T22:44:30.297Z,63.59
2023-11-19T22:47:10.098Z,63.38
2023-11-19T22:49:49.441Z,63.54
2023-11-19T22:52:28.723Z,63.84
2023-11-19T22:55:14.285Z,63.97
2023-11-19T23:00:39.224Z,63.83
2023-11-19T23:03:18.586Z,63.79
2023-11-19T23:05:57.951Z,64.03
2023-11-19T23:08:38.492Z,64.06
2023-11-19T23:11:23.205Z,63.54
2023-11-19T23:14:02.565Z,63.57
2023-11-19T23:16:47.585Z,63.30
2023-11-19T23:19:26.980Z,63.58
2023-11-19T23:22:07.687Z,63.61
2023-11-19T23:24:47.008Z,63.64
2023-11-19T23:27:31.433Z,63.86
2023-11-19T23:30:11.986Z,63.53
2023-11-19T23:32:51.456Z,63.60
2023-11-19T23:35:30.769Z,64.02
2023-11-19T23:38:11.150Z,64.08
2023-11-19T23:40:50.637Z,64.11
2023-11-19T23:43:35.984Z,64.20
2023-11-19T23:46:16.744Z,64.31
2023-11-19T23:48:59.736Z,64.65
2023-11-19T23:51:39.452Z,64.79
2023-11-19T23:54:18.747Z,65.08
2023-11-19T23:56:58.058Z,65.47
2023-11-19T23:59:42.423Z,65.17
